createdAt,value
2019-04-13T00:01:54.498Z,5.60
2019-04-13T00:04:30.552Z,6.20
2019-04-13T00:07:00.166Z,5.60
2019-04-13T00:09:29.574Z,6.43
2019-04-13T00:12:27.850Z,5.10
2019-04-13T00:15:00.529Z,5.83
2019-04-13T00:17:30.204Z,6.37
2019-04-13T00:19:59.848Z,6.03
2019-04-13T00:22:29.483Z,5.60
2019-04-13T00:24:58.931Z,6.27
2019-04-13T00:27:28.360Z,5.87
2019-04-13T00:29:57.808Z,7.97
2019-04-13T00:32:27.228Z,6.50
2019-04-13T00:34:56.786Z,6.27
2019-04-13T00:37:26.202Z,5.57
2019-04-13T00:39:55.708Z,6.10
2019-04-13T00:42:25.460Z,6.47
2019-04-13T00:44:54.863Z,6.50
2019-04-13T00:47:24.284Z,5.97
2019-04-13T00:49:53.783Z,6.63
2019-04-13T00:52:23.178Z,6.00
2019-04-13T00:54:52.582Z,7.10
2019-04-13T00:57:22.021Z,6.43
2019-04-13T00:59:51.472Z,5.63
2019-04-13T01:02:20.887Z,6.30
2019-04-13T01:04:53.587Z,6.27
2019-04-13T01:07:21.748Z,6.83
2019-04-13T01:09:51.340Z,6.90
2019-04-13T01:12:20.776Z,6.40
2019-04-13T01:14:50.365Z,6.87
2019-04-13T01:17:19.813Z,6.43
2019-04-13T01:19:49.300Z,6.50
2019-04-13T01:22:18.786Z,6.80
2019-04-13T01:24:48.229Z,6.83
2019-04-13T01:27:17.881Z,6.63
2019-04-13T01:29:47.371Z,6.67
2019-04-13T01:32:16.763Z,6.27
2019-04-13T01:34:46.180Z,7.23
2019-04-13T01:37:15.565Z,7.23
2019-04-13T01:39:44.996Z,7.23
2019-04-13T01:42:14.399Z,7.17
2019-04-13T01:44:43.813Z,7.30
2019-04-13T01:47:13.211Z,7.47
2019-04-13T01:49:42.768Z,7.37
2019-04-13T01:52:12.154Z,6.93
2019-04-13T01:54:41.606Z,6.73
2019-04-13T01:57:10.992Z,7.07
2019-04-13T01:59:40.416Z,7.27
2019-04-13T02:02:28.946Z,7.13
2019-04-13T02:05:20.294Z,7.37
2019-04-13T02:08:03.335Z,7.00
2019-04-13T02:10:36.344Z,6.93
2019-04-13T02:13:05.822Z,7.67
2019-04-13T02:15:35.560Z,7.47
2019-04-13T02:18:05.038Z,6.60
2019-04-13T02:20:34.500Z,6.70
2019-04-13T02:23:03.996Z,7.37
2019-04-13T02:25:33.410Z,7.17
2019-04-13T02:28:02.899Z,7.33
2019-04-13T02:30:32.331Z,6.80
2019-04-13T02:33:01.868Z,7.30
2019-04-13T02:35:35.846Z,7.33
2019-04-13T02:38:02.791Z,6.87
2019-04-13T02:40:32.200Z,7.43
2019-04-13T02:43:01.756Z,7.23
2019-04-13T02:45:31.269Z,7.43
2019-04-13T02:48:00.707Z,7.07
2019-04-13T02:50:30.142Z,7.27
2019-04-13T02:52:59.657Z,6.97
2019-04-13T02:55:29.059Z,7.13
2019-04-13T02:57:58.663Z,7.03
2019-04-13T03:00:28.157Z,7.17
2019-04-13T03:02:57.717Z,7.67
2019-04-13T03:05:27.137Z,7.30
2019-04-13T03:07:56.639Z,6.97
2019-04-13T03:10:26.594Z,7.00
2019-04-13T03:12:56.033Z,7.70
2019-04-13T03:15:34.854Z,7.43
2019-04-13T03:18:23.467Z,7.77
2019-04-13T03:20:52.871Z,7.07
2019-04-13T03:23:22.302Z,7.53
2019-04-13T03:25:51.849Z,7.47
2019-04-13T03:28:21.358Z,6.57
2019-04-13T03:30:50.991Z,7.13
2019-04-13T03:33:20.483Z,6.53
2019-04-13T03:35:58.795Z,7.23
2019-04-13T03:38:21.049Z,7.10
2019-04-13T03:40:50.458Z,7.27
2019-04-13T03:43:19.949Z,6.57
2019-04-13T03:45:49.364Z,6.93
2019-04-13T03:48:18.790Z,7.43
2019-04-13T03:50:48.192Z,6.30
2019-04-13T03:53:17.611Z,7.13
2019-04-13T03:55:47.142Z,6.40
2019-04-13T03:58:16.636Z,7.03
2019-04-13T04:00:46.037Z,6.60
2019-04-13T04:03:15.452Z,6.33
2019-04-13T04:05:44.858Z,6.20
2019-04-13T04:08:14.267Z,6.63
2019-04-13T04:10:43.681Z,6.50
2019-04-13T04:13:13.108Z,6.53
2019-04-13T04:15:42.574Z,5.83
2019-04-13T04:18:12.097Z,6.77
2019-04-13T04:20:41.481Z,6.13
2019-04-13T04:23:10.907Z,6.07
2019-04-13T04:25:40.331Z,6.40
2019-04-13T04:28:09.799Z,6.23
2019-04-13T04:30:39.239Z,5.80
2019-04-13T04:33:08.723Z,5.80
2019-04-13T04:35:38.141Z,6.13
2019-04-13T04:38:07.557Z,6.60
2019-04-13T04:40:37.011Z,5.83
2019-04-13T04:43:06.422Z,6.00
2019-04-13T04:45:35.843Z,6.17
2019-04-13T04:48:05.435Z,5.90
2019-04-13T04:50:34.866Z,5.97
2019-04-13T04:53:04.458Z,6.63
2019-04-13T04:55:34.041Z,6.00
2019-04-13T04:58:03.575Z,6.50
2019-04-13T05:00:32.986Z,6.90
2019-04-13T05:03:02.390Z,6.60
2019-04-13T05:05:31.887Z,6.47
2019-04-13T05:08:10.614Z,6.33
2019-04-13T05:10:32.444Z,6.30
2019-04-13T05:13:01.856Z,6.30
2019-04-13T05:15:31.526Z,6.13
2019-04-13T05:18:01.040Z,5.60
2019-04-13T05:20:30.476Z,6.20
2019-04-13T05:22:59.980Z,5.93
2019-04-13T05:25:29.402Z,5.83
2019-04-13T05:27:59.174Z,6.03
2019-04-13T05:30:28.635Z,6.07
2019-04-13T05:32:58.186Z,5.80
2019-04-13T05:35:27.670Z,6.20
2019-04-13T05:37:57.078Z,6.13
2019-04-13T05:40:26.557Z,5.90
2019-04-13T05:42:55.963Z,6.23
2019-04-13T05:45:25.568Z,6.33
2019-04-13T05:47:54.983Z,5.57
2019-04-13T05:50:24.574Z,6.30
2019-04-13T05:52:54.164Z,6.37
2019-04-13T05:55:23.597Z,6.03
2019-04-13T05:57:53.049Z,6.33
2019-04-13T06:00:22.541Z,5.83
2019-04-13T06:02:51.953Z,5.60
2019-04-13T06:05:21.391Z,5.87
2019-04-13T06:07:50.803Z,6.50
2019-04-13T06:10:21.519Z,5.80
2019-04-13T06:12:53.441Z,6.33
2019-04-13T06:15:22.431Z,5.80
2019-04-13T06:17:51.959Z,5.83
2019-04-13T06:20:21.366Z,5.90
2019-04-13T06:22:52.342Z,5.87
2019-04-13T06:25:28.958Z,6.10
2019-04-13T06:27:53.139Z,6.27
2019-04-13T06:30:56.635Z,5.83
2019-04-13T06:33:32.899Z,6.20
2019-04-13T06:36:03.203Z,5.93
2019-04-13T06:38:32.723Z,5.60
2019-04-13T06:41:02.146Z,5.70
2019-04-13T06:43:31.566Z,6.83
2019-04-13T06:46:01.206Z,5.73
2019-04-13T06:48:30.793Z,6.03
2019-04-13T06:51:00.360Z,6.20
2019-04-13T06:53:29.807Z,6.07
2019-04-13T06:55:59.474Z,5.97
2019-04-13T06:58:29.117Z,5.20
2019-04-13T07:00:58.781Z,6.17
2019-04-13T07:03:29.939Z,5.17
2019-04-13T07:05:59.994Z,5.43
2019-04-13T07:08:40.406Z,6.80
2019-04-13T07:11:21.620Z,5.90
2019-04-13T07:13:55.930Z,5.67
2019-04-13T07:16:28.792Z,6.20
2019-04-13T07:18:58.197Z,5.80
2019-04-13T07:21:27.781Z,5.73
2019-04-13T07:23:58.139Z,6.30
2019-04-13T07:26:28.302Z,5.70
2019-04-13T07:28:57.762Z,5.60
2019-04-13T07:31:31.092Z,5.77
2019-04-13T07:33:58.376Z,5.70
2019-04-13T07:36:27.906Z,5.37
2019-04-13T07:38:57.348Z,5.83
2019-04-13T07:41:31.069Z,5.43
2019-04-13T07:43:58.095Z,5.47
2019-04-13T07:46:35.009Z,5.50
2019-04-13T07:49:26.274Z,5.93
2019-04-13T07:52:07.234Z,5.60
2019-04-13T07:54:36.942Z,5.83
2019-04-13T07:57:06.455Z,5.83
2019-04-13T07:59:35.923Z,5.63
2019-04-13T08:02:05.497Z,5.90
2019-04-13T08:04:35.182Z,5.30
2019-04-13T08:07:06.455Z,5.73
2019-04-13T08:09:36.201Z,5.90
2019-04-13T08:12:05.817Z,5.53
2019-04-13T08:14:35.361Z,6.17
2019-04-13T08:17:10.993Z,5.67
2019-04-13T08:19:43.541Z,5.77
2019-04-13T08:22:13.190Z,6.83
2019-04-13T08:24:42.764Z,5.67
2019-04-13T08:27:12.301Z,5.63
2019-04-13T08:29:44.591Z,5.93
2019-04-13T08:32:13.126Z,5.83
2019-04-13T08:34:42.728Z,5.77
2019-04-13T08:37:12.204Z,5.87
2019-04-13T08:39:41.714Z,5.70
2019-04-13T08:42:19.410Z,5.70
2019-04-13T08:44:42.236Z,5.53
2019-04-13T08:47:11.725Z,5.20
2019-04-13T08:49:41.197Z,6.30
2019-04-13T08:52:10.624Z,5.90
2019-04-13T08:54:40.116Z,5.83
2019-04-13T08:57:09.870Z,5.80
2019-04-13T08:59:39.326Z,5.63
2019-04-13T09:02:08.851Z,5.67
2019-04-13T09:04:38.482Z,6.53
2019-04-13T09:07:07.979Z,5.47
2019-04-13T09:09:39.077Z,6.23
2019-04-13T09:12:11.440Z,7.07
2019-04-13T09:14:40.426Z,5.73
2019-04-13T09:17:14.883Z,5.20
2019-04-13T09:19:46.562Z,5.77
2019-04-13T09:22:18.784Z,5.77
2019-04-13T09:24:49.393Z,5.87
2019-04-13T09:27:19.246Z,5.70
2019-04-13T09:29:48.702Z,6.07
2019-04-13T09:32:18.277Z,5.80
2019-04-13T09:34:47.819Z,5.63
2019-04-13T09:37:17.611Z,5.90
2019-04-13T09:39:47.232Z,5.60
2019-04-13T09:42:16.778Z,6.27
2019-04-13T09:44:46.206Z,5.90
2019-04-13T09:47:21.213Z,6.13
2019-04-13T09:49:50.756Z,6.40
2019-04-13T09:52:20.162Z,5.70
2019-04-13T09:54:49.707Z,6.20
2019-04-13T09:57:19.300Z,5.87
2019-04-13T09:59:48.784Z,5.90
2019-04-13T10:02:18.393Z,5.77
2019-04-13T10:04:49.471Z,5.60
2019-04-13T10:07:19.067Z,5.57
2019-04-13T10:09:48.607Z,5.90
2019-04-13T10:12:32.475Z,5.20
2019-04-13T10:15:33.518Z,7.13
2019-04-13T10:18:07.138Z,5.70
2019-04-13T10:20:39.115Z,5.70
2019-04-13T10:23:08.004Z,5.80
2019-04-13T10:25:38.338Z,5.60
2019-04-13T10:28:08.506Z,5.80
2019-04-13T10:30:57.288Z,5.50
2019-04-13T10:33:26.907Z,6.27
2019-04-13T10:35:56.487Z,5.70
2019-04-13T10:38:26.155Z,5.87
2019-04-13T10:40:55.762Z,5.60
2019-04-13T10:43:25.352Z,5.73
2019-04-13T10:46:06.333Z,5.43
2019-04-13T10:48:44.235Z,6.40
2019-04-13T10:51:20.202Z,5.53
2019-04-13T10:53:49.665Z,5.60
2019-04-13T10:56:19.277Z,5.47
2019-04-13T10:58:48.807Z,5.60
2019-04-13T11:01:18.393Z,5.53
2019-04-13T11:03:47.964Z,6.13
2019-04-13T11:06:17.717Z,5.47
2019-04-13T11:08:49.125Z,4.90
2019-04-13T11:11:18.575Z,5.10
2019-04-13T11:13:47.990Z,5.23
2019-04-13T11:16:18.364Z,5.73
2019-04-13T11:18:48.455Z,5.47
2019-04-13T11:21:18.247Z,5.33
2019-04-13T11:23:47.709Z,5.00
2019-04-13T11:26:17.169Z,5.37
2019-04-13T11:28:46.711Z,5.47
2019-04-13T11:31:16.189Z,5.00
2019-04-13T11:33:45.651Z,5.80
2019-04-13T11:36:15.269Z,5.00
2019-04-13T11:38:44.936Z,5.97
2019-04-13T11:41:36.348Z,5.67
2019-04-13T11:44:30.329Z,5.53
2019-04-13T11:47:22.470Z,5.70
2019-04-13T11:49:56.619Z,5.20
2019-04-13T11:52:23.320Z,5.37
2019-04-13T11:54:52.748Z,5.60
2019-04-13T11:57:22.290Z,5.57
2019-04-13T11:59:51.843Z,5.50
2019-04-13T12:02:44.432Z,6.30
2019-04-13T12:05:37.298Z,5.70
2019-04-13T12:08:15.484Z,5.93
2019-04-13T12:11:02.672Z,6.43
2019-04-13T12:13:55.465Z,5.73
2019-04-13T12:16:36.132Z,6.10
2019-04-13T12:19:20.000Z,6.43
2019-04-13T12:22:01.946Z,5.90
2019-04-13T12:24:32.336Z,6.67
2019-04-13T12:27:03.102Z,6.63
2019-04-13T12:29:32.741Z,6.67
2019-04-13T12:32:03.945Z,6.80
2019-04-13T12:34:33.677Z,6.10
2019-04-13T12:37:03.631Z,7.07
2019-04-13T12:39:34.321Z,7.07
2019-04-13T12:42:05.879Z,7.07
2019-04-13T12:44:38.458Z,6.53
2019-04-13T12:47:10.019Z,6.70
2019-04-13T12:49:39.799Z,6.37
2019-04-13T12:52:09.227Z,6.80
2019-04-13T12:54:38.662Z,7.30
2019-04-13T12:57:08.214Z,7.43
2019-04-13T12:59:37.746Z,7.43
2019-04-13T13:02:16.895Z,6.90
2019-04-13T13:05:02.688Z,6.97
2019-04-13T13:07:32.170Z,6.57
2019-04-13T13:10:14.375Z,6.93
2019-04-13T13:12:33.023Z,6.20
2019-04-13T13:15:02.496Z,7.17
2019-04-13T13:17:32.034Z,6.63
2019-04-13T13:20:01.461Z,7.33
2019-04-13T13:22:30.944Z,6.90
2019-04-13T13:25:00.514Z,7.27
2019-04-13T13:27:30.082Z,6.40
2019-04-13T13:29:59.603Z,7.90
2019-04-13T13:32:29.154Z,7.17
2019-04-13T13:35:00.691Z,7.37
2019-04-13T13:37:31.536Z,7.43
2019-04-13T13:40:00.969Z,7.43
2019-04-13T13:42:30.422Z,6.23
2019-04-13T13:44:59.852Z,6.50
2019-04-13T13:47:29.326Z,6.70
2019-04-13T13:49:58.763Z,6.23
2019-04-13T13:52:28.368Z,5.90
2019-04-13T13:54:57.879Z,5.83
2019-04-13T13:57:27.338Z,5.97
2019-04-13T13:59:56.822Z,6.40
2019-04-13T14:02:29.375Z,5.70
2019-04-13T14:05:00.685Z,6.00
2019-04-13T14:07:32.419Z,6.10
2019-04-13T14:10:13.034Z,5.97
2019-04-13T14:12:42.852Z,5.30
2019-04-13T14:15:14.416Z,5.80
2019-04-13T14:17:43.847Z,6.00
2019-04-13T14:20:14.113Z,5.80
2019-04-13T14:22:43.577Z,5.67
2019-04-13T14:25:13.236Z,5.87
2019-04-13T14:27:42.837Z,5.50
2019-04-13T14:30:12.758Z,5.70
2019-04-13T14:32:42.299Z,6.53
2019-04-13T14:35:11.963Z,5.93
2019-04-13T14:37:41.397Z,5.23
2019-04-13T14:40:11.058Z,5.80
2019-04-13T14:42:40.643Z,5.47
2019-04-13T14:45:10.355Z,5.83
2019-04-13T14:47:39.761Z,6.00
2019-04-13T14:50:09.694Z,6.10
2019-04-13T14:52:39.091Z,6.00
2019-04-13T14:55:08.894Z,6.27
2019-04-13T14:57:38.940Z,5.97
2019-04-13T15:00:10.108Z,5.77
2019-04-13T15:02:39.528Z,6.07
2019-04-13T15:05:09.476Z,5.93
2019-04-13T15:07:38.913Z,5.67
2019-04-13T15:10:08.928Z,6.10
2019-04-13T15:12:38.467Z,5.67
2019-04-13T15:15:09.282Z,5.60
2019-04-13T15:18:14.146Z,5.30
2019-04-13T15:20:44.834Z,5.90
2019-04-13T15:23:13.696Z,6.33
2019-04-13T15:25:44.290Z,5.50
2019-04-13T15:28:14.786Z,5.40
2019-04-13T15:30:48.037Z,5.33
2019-04-13T15:33:18.267Z,6.97
2019-04-13T15:35:51.275Z,5.70
2019-04-13T15:38:21.386Z,5.97
2019-04-13T15:40:56.146Z,5.93
2019-04-13T15:43:27.070Z,5.87
2019-04-13T15:45:52.546Z,5.87
2019-04-13T15:48:25.411Z,6.13
2019-04-13T15:50:55.269Z,5.83
2019-04-13T15:53:24.900Z,5.77
2019-04-13T15:55:54.696Z,5.33
2019-04-13T15:58:25.053Z,5.70
2019-04-13T16:00:54.778Z,5.90
2019-04-13T16:03:24.506Z,5.70
2019-04-13T16:05:54.100Z,5.37
2019-04-13T16:08:24.354Z,5.70
2019-04-13T16:11:03.612Z,6.00
2019-04-13T16:13:33.168Z,5.37
2019-04-13T16:16:03.007Z,5.30
2019-04-13T16:18:32.786Z,4.93
2019-04-13T16:21:02.403Z,5.80
2019-04-13T16:23:32.681Z,4.93
2019-04-13T16:26:02.226Z,4.80
2019-04-13T16:28:54.731Z,5.73
2019-04-13T16:31:52.966Z,5.63
2019-04-13T16:34:44.949Z,5.57
2019-04-13T16:37:32.387Z,6.10
2019-04-13T16:40:02.269Z,5.53
2019-04-13T16:42:34.485Z,5.30
2019-04-13T16:45:16.651Z,6.00
2019-04-13T16:47:55.850Z,4.90
2019-04-13T16:50:42.205Z,4.97
2019-04-13T16:53:26.534Z,5.37
2019-04-13T16:55:58.779Z,6.27
2019-04-13T16:58:50.746Z,5.33
2019-04-13T17:01:43.918Z,5.80
2019-04-13T17:04:42.254Z,5.53
2019-04-13T17:07:13.332Z,6.83
2019-04-13T17:09:43.565Z,6.17
2019-04-13T17:12:25.063Z,6.07
2019-04-13T17:14:45.524Z,5.73
2019-04-13T17:17:15.732Z,5.70
2019-04-13T17:20:05.532Z,6.43
2019-04-13T17:22:52.019Z,5.50
2019-04-13T17:25:34.684Z,6.10
2019-04-13T17:28:17.383Z,9.37
2019-04-13T17:31:09.847Z,7.63
2019-04-13T17:33:44.087Z,5.70
2019-04-13T17:36:14.776Z,7.27
2019-04-13T17:38:44.455Z,5.67
2019-04-13T17:41:25.813Z,5.97
2019-04-13T17:44:14.774Z,5.77
2019-04-13T17:47:02.128Z,5.80
2019-04-13T17:49:50.819Z,5.33
2019-04-13T17:52:46.505Z,6.13
2019-04-13T17:58:29.758Z,6.17
2019-04-13T18:01:21.045Z,5.87
2019-04-13T18:04:10.081Z,5.80
2019-04-13T18:06:58.967Z,5.73
2019-04-13T18:09:51.429Z,5.93
2019-04-13T18:12:47.703Z,6.13
2019-04-13T18:15:18.170Z,6.40
2019-04-13T18:18:12.570Z,7.10
2019-04-13T18:20:42.813Z,6.40
2019-04-13T18:23:13.165Z,6.37
2019-04-13T18:25:49.130Z,6.23
2019-04-13T18:28:14.937Z,6.07
2019-04-13T18:30:45.454Z,7.23
2019-04-13T18:33:16.026Z,8.60
2019-04-13T18:35:47.118Z,7.27
2019-04-13T18:38:19.035Z,7.47
2019-04-13T18:40:49.360Z,6.80
2019-04-13T18:43:23.094Z,6.73
2019-04-13T18:45:51.365Z,7.07
2019-04-13T18:48:21.016Z,5.63
2019-04-13T18:50:50.469Z,7.33
2019-04-13T18:53:21.191Z,6.90
2019-04-13T18:55:51.691Z,6.83
2019-04-13T18:58:21.455Z,7.17
2019-04-13T19:00:51.213Z,7.60
2019-04-13T19:03:21.451Z,8.97
2019-04-13T19:05:51.251Z,6.37
2019-04-13T19:08:20.822Z,6.63
2019-04-13T19:10:50.275Z,6.43
2019-04-13T19:13:19.746Z,7.83
2019-04-13T19:15:49.161Z,6.40
2019-04-13T19:18:18.740Z,7.00
2019-04-13T19:20:48.299Z,7.33
2019-04-13T19:23:17.839Z,7.03
2019-04-13T19:25:47.451Z,7.93
2019-04-13T19:28:17.048Z,6.30
2019-04-13T19:30:46.811Z,6.37
2019-04-13T19:33:16.417Z,6.93
2019-04-13T19:35:45.881Z,6.83
2019-04-13T19:38:15.427Z,7.30
2019-04-13T19:40:44.866Z,6.70
2019-04-13T19:43:16.567Z,7.40
2019-04-13T19:45:45.598Z,7.70
2019-04-13T19:48:15.087Z,7.00
2019-04-13T19:50:44.617Z,7.00
2019-04-13T19:53:23.333Z,6.60
2019-04-13T19:55:52.782Z,6.80
2019-04-13T19:58:22.199Z,7.03
2019-04-13T20:00:53.013Z,6.93
2019-04-13T20:03:22.504Z,6.23
2019-04-13T20:05:51.922Z,6.60
2019-04-13T20:08:21.399Z,6.87
2019-04-13T20:10:50.826Z,6.60
2019-04-13T20:13:32.908Z,6.33
2019-04-13T20:15:51.450Z,6.33
2019-04-13T20:18:21.167Z,6.97
2019-04-13T20:20:50.676Z,6.53
2019-04-13T20:23:20.097Z,6.77
2019-04-13T20:25:50.435Z,6.90
2019-04-13T20:28:20.079Z,6.70
2019-04-13T20:30:49.864Z,6.53
2019-04-13T20:33:19.966Z,6.73
2019-04-13T20:35:56.764Z,6.83
2019-04-13T20:38:21.449Z,6.60
2019-04-13T20:41:17.146Z,6.60
2019-04-13T20:43:55.438Z,6.90
2019-04-13T20:46:19.522Z,7.87
2019-04-13T20:48:49.190Z,6.80
2019-04-13T20:51:19.257Z,7.00
2019-04-13T20:53:49.495Z,7.07
2019-04-13T20:56:18.919Z,6.33
2019-04-13T20:58:48.949Z,7.17
2019-04-13T21:01:19.093Z,6.43
2019-04-13T21:03:49.154Z,6.53
2019-04-13T21:06:19.640Z,6.60
2019-04-13T21:08:52.543Z,6.97
2019-04-13T21:11:20.735Z,7.83
2019-04-13T21:14:01.179Z,7.43
2019-04-13T21:16:21.486Z,7.53
2019-04-13T21:18:51.495Z,7.83
2019-04-13T21:21:21.614Z,7.10
2019-04-13T21:23:51.760Z,7.13
2019-04-13T21:26:23.736Z,7.87
2019-04-13T21:28:53.579Z,7.63
2019-04-13T21:31:24.027Z,7.87
2019-04-13T21:33:54.061Z,8.93
2019-04-13T21:36:24.154Z,7.60
2019-04-13T21:38:54.197Z,6.60
2019-04-13T21:41:24.006Z,6.53
2019-04-13T21:43:54.153Z,7.40
2019-04-13T21:46:24.192Z,7.27
2019-04-13T21:48:54.640Z,6.97
2019-04-13T21:51:44.466Z,6.80
2019-04-13T21:54:19.014Z,7.07
2019-04-13T21:56:49.430Z,7.53
2019-04-13T21:59:19.419Z,8.87
2019-04-13T22:02:09.141Z,6.40
2019-04-13T22:04:39.143Z,7.30
2019-04-13T22:07:09.259Z,7.37
2019-04-13T22:09:39.159Z,7.40
2019-04-13T22:12:09.138Z,6.90
2019-04-13T22:14:46.247Z,7.60
2019-04-13T22:17:09.845Z,7.97
2019-04-13T22:19:39.761Z,7.20
2019-04-13T22:22:09.762Z,7.00
2019-04-13T22:24:39.863Z,6.63
2019-04-13T22:27:11.195Z,7.00
2019-04-13T22:29:46.295Z,7.10
2019-04-13T22:32:29.985Z,8.07
2019-04-13T22:35:02.635Z,7.33
2019-04-13T22:37:32.031Z,8.10
2019-04-13T22:40:01.872Z,7.50
2019-04-13T22:42:31.627Z,7.80
2019-04-13T22:45:04.729Z,7.30
2019-04-13T22:47:32.199Z,7.63
2019-04-13T22:50:15.632Z,6.60
2019-04-13T22:53:17.122Z,7.30
2019-04-13T22:56:04.751Z,7.90
2019-04-13T22:58:35.492Z,7.30
2019-04-13T23:01:11.514Z,7.40
2019-04-13T23:03:41.844Z,6.77
2019-04-13T23:06:11.765Z,6.77
2019-04-13T23:08:42.384Z,7.07
2019-04-13T23:11:12.653Z,7.27
2019-04-13T23:13:42.807Z,7.17
2019-04-13T23:16:12.805Z,7.73
2019-04-13T23:18:42.847Z,7.70
2019-04-13T23:21:13.560Z,6.73
2019-04-13T23:23:44.077Z,7.50
2019-04-13T23:26:14.424Z,7.57
2019-04-13T23:28:44.614Z,7.30
2019-04-13T23:31:14.994Z,7.10
2019-04-13T23:33:45.898Z,7.63
2019-04-13T23:36:15.929Z,7.27
2019-04-13T23:38:46.493Z,7.83
2019-04-13T23:41:16.914Z,7.40
2019-04-13T23:43:47.236Z,7.10
2019-04-13T23:46:17.759Z,7.50
2019-04-13T23:48:48.366Z,8.07
2019-04-13T23:51:18.454Z,7.63
2019-04-13T23:53:48.834Z,7.67
2019-04-13T23:56:30.243Z,7.70
2019-04-13T23:59:04.864Z,6.90
